BBC Brazil — V7DV7 — position and weather

sailwx.info

Track history (hours):
 
Tides and Currents Weather Stations Pressure Air Temp Water Temp Dewpoint Dewpoint Depression Visibility Wind Speed Wind Dir Waves Ship Positions

BBC Brazil

Last reported at 2017-Nov-03 00:49 UTC. Time now 2017-Nov-17 19:33 UTC.
Position N 01°17' E 103°23'.
Warning: this ship's position is 14 days out of date.

Length 228 m; draft 8.3 m.

Type: Ship. MMSI: 538005439.

Date/timePositionNaut miles runAvg speedWind from/ knotsBaromVisibWave heightAir tempDewpointWater temp
2017-Nov-03 00:49N 01°17' E 103°23'711.3
2017-Nov-03 00:13N 01°14' E 103°29'312.2
2017-Nov-02 23:59N 01°13' E 103°32'611.6
2017-Nov-02 23:30N 01°12' E 103°38'5 9.4
2017-Nov-02 22:59N 01°10' E 103°42'510.1
2017-Nov-02 22:31N 01°10' E 103°47'3 6.3
2017-Nov-02 22:00N 01°12' E 103°49'1 1.8
2017-Nov-02 21:29N 01°13' E 103°49'0 0.0
2017-Nov-02 20:59N 01°13' E 103°49'0 0.2
2017-Nov-02 20:29N 01°13' E 103°49'0 0.2
2017-Nov-02 19:59N 01°13' E 103°49'0 0.1
2017-Nov-02 19:29N 01°13' E 103°49'0 0.1
2017-Nov-02 18:59N 01°13' E 103°49'0 0.0
2017-Nov-02 18:29N 01°13' E 103°49'0 0.0
2017-Nov-02 17:59N 01°13' E 103°49'0 0.1
2017-Nov-02 17:29N 01°13' E 103°49'0 0.0
2017-Nov-02 16:59N 01°13' E 103°49'0 0.1
2017-Nov-02 16:29N 01°13' E 103°49'0 0.0
2017-Nov-02 15:59N 01°13' E 103°49'0 0.1
2017-Nov-02 15:29N 01°13' E 103°49'0 0.2
2017-Nov-02 14:59N 01°13' E 103°49'0 0.0
2017-Nov-02 14:29N 01°13' E 103°49'0 0.0
2017-Nov-02 13:59N 01°13' E 103°49'0 0.0
2017-Nov-02 13:29N 01°13' E 103°49'0 0.4
2017-Nov-02 12:59N 01°13' E 103°49'0 0.0
2017-Nov-02 12:29N 01°13' E 103°49'0 0.1
2017-Nov-02 11:50N 01°13' E 103°49'0 0.1
2017-Nov-02 11:26N 01°13' E 103°49'0 0.0
2017-Nov-02 10:59N 01°13' E 103°49'0 0.0
2017-Nov-02 10:29N 01°13' E 103°49'0 0.0
2017-Nov-02 09:47N 01°13' E 103°49'0 0.2
2017-Nov-02 09:29N 01°13' E 103°49'0 0.1
2017-Nov-02 08:59N 01°13' E 103°49'0 0.2
2017-Nov-02 08:29N 01°13' E 103°49'0 0.0
2017-Nov-02 07:59N 01°13' E 103°49'0 0.0
2017-Nov-02 07:26N 01°13' E 103°49'0 0.0
2017-Nov-02 06:59N 01°13' E 103°49'0 0.1
2017-Nov-02 06:29N 01°13' E 103°49'0 0.1
2017-Nov-02 05:53N 01°13' E 103°49'0 0.2
2017-Nov-02 05:29N 01°13' E 103°49'0 0.0
2017-Nov-02 04:59N 01°13' E 103°49'0 0.0
2017-Nov-02 04:29N 01°13' E 103°49'0 0.1
2017-Nov-02 03:59N 01°13' E 103°49'0 0.0
2017-Nov-02 03:26N 01°13' E 103°49'0 0.0
2017-Nov-02 02:59N 01°13' E 103°49'0 0.0
2017-Nov-02 02:23N 01°13' E 103°49'0 0.0
2017-Nov-02 01:59N 01°13' E 103°49'0 0.1
2017-Nov-02 01:26N 01°13' E 103°49'0 0.2
2017-Nov-02 00:56N 01°13' E 103°49'0 0.0
2017-Nov-02 00:29N 01°13' E 103°49'0 0.0
2017-Nov-01 23:53N 01°13' E 103°49'0 0.1
2017-Nov-01 23:29N 01°13' E 103°49'0 0.1
2017-Nov-01 22:59N 01°13' E 103°49'0 0.0
2017-Nov-01 22:29N 01°13' E 103°49'0 0.1
2017-Nov-01 21:59N 01°13' E 103°49'0 0.1
2017-Nov-01 21:29N 01°13' E 103°49'0 0.2
2017-Nov-01 20:59N 01°13' E 103°49'0 0.3
2017-Nov-01 20:29N 01°13' E 103°49'0 0.1
2017-Nov-01 19:59N 01°13' E 103°49'0 0.1
2017-Nov-01 19:30N 01°13' E 103°49'2 3.8
2017-Nov-01 19:01N 01°14' E 103°47'5 9.5
2017-Nov-01 18:31N 01°14' E 103°42'4 0.2
2017-Nov-01 01:58N 01°18' E 103°41'0 0.0
2017-Nov-01 01:25N 01°18' E 103°41'0 0.0
2017-Nov-01 00:58N 01°18' E 103°41'0 0.0
2017-Nov-01 00:28N 01°18' E 103°41'0 0.0
2017-Oct-31 23:58N 01°18' E 103°41'0 0.3
2017-Oct-31 23:30N 01°18' E 103°41'2 3.4
2017-Oct-31 23:00N 01°17' E 103°40'3 5.4
2017-Oct-31 22:30N 01°14' E 103°39'2 4.6
2017-Oct-31 22:00N 01°12' E 103°40'0 0.1
2017-Oct-31 21:30N 01°12' E 103°40'0 0.0
2017-Oct-31 20:57N 01°12' E 103°40'0 0.1
2017-Oct-31 20:30N 01°12' E 103°41'0 0.3
2017-Oct-31 19:57N 01°12' E 103°41'0 0.0
2017-Oct-31 19:30N 01°12' E 103°41'0 0.0
2017-Oct-31 18:57N 01°12' E 103°41'0 0.0
2017-Oct-31 18:24N 01°12' E 103°41'0 0.3
2017-Oct-31 18:00N 01°12' E 103°41'0 0.0
2017-Oct-31 17:30N 01°12' E 103°41'0 0.0
2017-Oct-31 16:57N 01°12' E 103°41'0 0.0
2017-Oct-31 16:30N 01°12' E 103°41'0 0.0
2017-Oct-31 15:57N 01°12' E 103°41'0 0.0
2017-Oct-31 15:27N 01°12' E 103°41'0 0.0
2017-Oct-31 14:54N 01°12' E 103°41'0 0.0
2017-Oct-31 14:30N 01°12' E 103°41'0 0.1
2017-Oct-31 13:57N 01°12' E 103°41'0 0.3
2017-Oct-31 13:30N 01°12' E 103°40'0 0.0
2017-Oct-31 13:00N 01°12' E 103°40'0 0.1
2017-Oct-31 12:30N 01°12' E 103°40'0 0.0
2017-Oct-31 11:54N 01°12' E 103°40'0 0.0
2017-Oct-31 11:30N 01°12' E 103°40'0 0.0
2017-Oct-31 10:57N 01°12' E 103°40'0 0.0
2017-Oct-31 10:30N 01°12' E 103°40'0 0.0
2017-Oct-31 09:54N 01°12' E 103°40'0 0.0
2017-Oct-31 09:24N 01°12' E 103°40'0 0.0
2017-Oct-31 08:57N 01°12' E 103°40'0 0.0
2017-Oct-31 08:30N 01°12' E 103°40'0 0.0
2017-Oct-31 07:57N 01°12' E 103°40'0 0.0
2017-Oct-31 07:30N 01°12' E 103°40'0 0.0
2017-Oct-31 06:57N 01°12' E 103°40'0 0.1
2017-Oct-31 06:21N 01°12' E 103°40'0 0.0
2017-Oct-31 06:00N 01°12' E 103°40'0 0.1
2017-Oct-31 05:30N 01°12' E 103°40'0 0.1
2017-Oct-31 04:57N 01°12' E 103°40'0 0.0
2017-Oct-31 04:30N 01°12' E 103°40'0 0.0
2017-Oct-31 03:57N 01°12' E 103°40'0 0.1
2017-Oct-31 03:30N 01°12' E 103°41'0 0.0
2017-Oct-31 02:57N 01°12' E 103°41'0 0.1
2017-Oct-31 02:30N 01°12' E 103°40'0 0.1
2017-Oct-31 01:57N 01°12' E 103°40'0 0.0
2017-Oct-31 01:30N 01°12' E 103°40'0 0.1
2017-Oct-31 00:57N 01°12' E 103°41'0 0.0
2017-Oct-31 00:30N 01°12' E 103°41'0 0.0
2017-Oct-31 00:00N 01°12' E 103°41'0 0.1
2017-Oct-30 23:30N 01°12' E 103°40'0 0.6
2017-Oct-30 23:00N 01°12' E 103°41'3 6.6
2017-Oct-30 22:30N 01°15' E 103°41'1 0.9
2017-Oct-30 21:53N 01°16' E 103°41'0 0.0
2017-Oct-30 21:29N 01°16' E 103°41'0 0.0
2017-Oct-30 20:53N 01°16' E 103°41'0 0.0
2017-Oct-30 20:29N 01°16' E 103°41'0 0.0
2017-Oct-30 19:56N 01°16' E 103°41'0 0.0
2017-Oct-30 19:29N 01°16' E 103°41'0 0.0
2017-Oct-30 18:56N 01°16' E 103°41'0 0.0
2017-Oct-30 18:26N 01°16' E 103°41'0 0.0
2017-Oct-30 17:50N 01°16' E 103°41'0 0.0
2017-Oct-30 17:26N 01°16' E 103°41'0 0.0
2017-Oct-30 16:56N 01°16' E 103°41'0 0.0
2017-Oct-30 16:29N 01°16' E 103°41'0 0.0
2017-Oct-30 15:53N 01°16' E 103°41'0 0.0
2017-Oct-30 15:29N 01°16' E 103°41'0 0.0
2017-Oct-30 14:56N 01°16' E 103°41'0 0.0
2017-Oct-30 13:47N 01°16' E 103°41'0 0.0
2017-Oct-30 13:29N 01°16' E 103°41'0 0.0
2017-Oct-30 12:23N 01°16' E 103°41'0 0.0
2017-Oct-30 11:56N 01°16' E 103°41'0 0.0
2017-Oct-30 11:29N 01°16' E 103°41'0 0.0
2017-Oct-30 10:56N 01°16' E 103°41'0 0.0
2017-Oct-30 10:29N 01°16' E 103°41'0 0.0
2017-Oct-30 09:56N 01°16' E 103°41'0 0.0
2017-Oct-30 09:29N 01°16' E 103°41'0 0.0
2017-Oct-30 08:53N 01°16' E 103°41'0 0.0
2017-Oct-30 08:30N 01°16' E 103°41'1 2.6
2017-Oct-30 08:00N 01°15' E 103°42'2 3.8
2017-Oct-30 07:30N 01°13' E 103°40'3 5.2
2017-Oct-30 07:01N 01°11' E 103°41'2 3.5
2017-Oct-30 06:29N 01°10' E 103°43'0 0.1
2017-Oct-30 05:59N 01°10' E 103°43'0 0.0
2017-Oct-30 05:26N 01°10' E 103°43'0 0.2
2017-Oct-30 04:59N 01°10' E 103°43'0 0.1
2017-Oct-30 04:20N 01°10' E 103°43'0 0.0
2017-Oct-30 03:59N 01°10' E 103°43'0 0.0
2017-Oct-30 03:23N 01°10' E 103°43'0 0.2
2017-Oct-30 02:59N 01°10' E 103°43'0 0.1
2017-Oct-30 02:26N 01°10' E 103°43'0 0.1
2017-Oct-30 01:59N 01°10' E 103°43'0 0.0
2017-Oct-30 01:29N 01°10' E 103°43'0 0.3
2017-Oct-30 00:59N 01°10' E 103°43'0 0.0
2017-Oct-30 00:17N 01°10' E 103°43'0 0.1
2017-Oct-29 23:59N 01°10' E 103°43'0 0.0
2017-Oct-29 23:26N 01°10' E 103°43'0 0.1
2017-Oct-29 22:59N 01°10' E 103°43'0 0.2
2017-Oct-29 22:29N 01°10' E 103°43'0 0.0
2017-Oct-29 21:59N 01°10' E 103°43'0 0.1
2017-Oct-29 21:29N 01°10' E 103°43'0 0.0
2017-Oct-29 20:59N 01°10' E 103°43'0 0.0
2017-Oct-29 20:29N 01°10' E 103°43'0 0.0
2017-Oct-29 19:56N 01°10' E 103°43'0 0.3
2017-Oct-29 19:29N 01°10' E 103°43'0 0.2
2017-Oct-29 18:59N 01°10' E 103°43'0 0.1
2017-Oct-29 18:26N 01°10' E 103°43'0 0.0
2017-Oct-29 17:59N 01°10' E 103°43'0 0.0
2017-Oct-29 17:29N 01°10' E 103°43'0 0.0
2017-Oct-29 16:59N 01°10' E 103°43'0 0.0
2017-Oct-29 16:26N 01°10' E 103°43'0 0.0
2017-Oct-29 15:59N 01°10' E 103°43'0 0.0
2017-Oct-29 15:29N 01°10' E 103°43'0 0.0
2017-Oct-29 14:59N 01°10' E 103°43'0 0.3
2017-Oct-29 14:26N 01°10' E 103°43'0 0.0
2017-Oct-29 13:59N 01°10' E 103°43'0 0.0
2017-Oct-29 13:26N 01°10' E 103°43'0 0.0
2017-Oct-29 12:59N 01°10' E 103°43'0 0.0
2017-Oct-29 12:29N 01°10' E 103°43'0 0.0
2017-Oct-29 11:53N 01°10' E 103°43'0 0.0
2017-Oct-29 11:23N 01°10' E 103°43'0 0.0
2017-Oct-29 10:50N 01°10' E 103°43'0 0.0
2017-Oct-29 10:29N 01°10' E 103°43'0 0.0
2017-Oct-29 09:56N 01°10' E 103°43'0 0.1
2017-Oct-29 09:11N 01°10' E 103°43'0 0.0
2017-Oct-29 08:56N 01°10' E 103°43'0 0.0
2017-Oct-29 08:26N 01°10' E 103°43'0 0.1
2017-Oct-29 07:59N 01°10' E 103°43'0 0.1
2017-Oct-29 07:20N 01°10' E 103°43'0 0.1
2017-Oct-29 06:59N 01°10' E 103°43'0 0.0
2017-Oct-29 06:23N 01°10' E 103°43'0 0.0
2017-Oct-29 05:50N 01°10' E 103°43'0 0.0
2017-Oct-29 05:29N 01°10' E 103°43'0 0.0
2017-Oct-29 04:56N 01°10' E 103°43'0 0.1
2017-Oct-29 04:26N 01°10' E 103°43'0 0.0
2017-Oct-29 03:44N 01°10' E 103°43'0 0.0
2017-Oct-28 18:59N 01°10' E 103°43'0 0.0
2017-Oct-28 18:29N 01°10' E 103°43'0 0.0
2017-Oct-28 17:56N 01°10' E 103°43'0 0.3
2017-Oct-28 17:29N 01°10' E 103°43'1 1.3
2017-Oct-28 17:00N 01°10' E 103°42'4 7.2
2017-Oct-28 16:30N 01°13' E 103°41'1 2.6
2017-Oct-28 16:00N 01°14' E 103°42'0 0.0
2017-Oct-28 15:28N 01°14' E 103°42'0 0.0
2017-Oct-28 14:49N 01°14' E 103°42'0 0.0
2017-Oct-28 14:28N 01°14' E 103°42'0 0.0
2017-Oct-28 13:55N 01°14' E 103°42'0 0.0
2017-Oct-28 13:22N 01°14' E 103°42'0 0.0
2017-Oct-28 12:58N 01°14' E 103°42'0 0.0
2017-Oct-28 12:28N 01°14' E 103°42'0 0.0
2017-Oct-28 11:55N 01°14' E 103°42'0 0.0
2017-Oct-28 11:28N 01°14' E 103°42'0 0.0
2017-Oct-28 10:55N 01°14' E 103°42'0 0.0
2017-Oct-28 10:28N 01°14' E 103°42'0 0.0
2017-Oct-28 09:58N 01°14' E 103°42'0 0.0
2017-Oct-28 09:22N 01°14' E 103°42'0 0.0
2017-Oct-28 08:58N 01°14' E 103°42'0 0.0
2017-Oct-28 08:25N 01°14' E 103°42'0 0.0
2017-Oct-28 07:58N 01°14' E 103°42'0 0.0
2017-Oct-28 07:28N 01°14' E 103°42'0 0.0
2017-Oct-28 06:58N 01°14' E 103°42'0 0.0
2017-Oct-28 06:28N 01°14' E 103°42'0 0.0
2017-Oct-28 05:58N 01°14' E 103°42'0 0.0
2017-Oct-28 05:28N 01°14' E 103°42'0 0.0
2017-Oct-28 04:58N 01°14' E 103°42'0 0.0
2017-Oct-28 04:28N 01°14' E 103°42'0 0.0
2017-Oct-28 03:58N 01°14' E 103°42'0 0.0
2017-Oct-28 03:28N 01°14' E 103°42'0 0.0
2017-Oct-28 02:55N 01°14' E 103°42'0 0.0
2017-Oct-28 02:28N 01°14' E 103°42'0 0.0
2017-Oct-28 01:58N 01°14' E 103°42'0 0.0
2017-Oct-28 01:28N 01°14' E 103°42'0 0.0
2017-Oct-28 00:49N 01°14' E 103°42'0 0.0
2017-Oct-28 00:25N 01°14' E 103°42'0 0.0
2017-Oct-27 23:58N 01°14' E 103°42'0 0.0
2017-Oct-27 23:28N 01°14' E 103°42'0 0.0
2017-Oct-27 22:58N 01°14' E 103°42'0 0.0
2017-Oct-27 22:28N 01°14' E 103°42'0 0.0
2017-Oct-27 21:55N 01°14' E 103°42'0 0.0
2017-Oct-27 21:28N 01°14' E 103°42'0 0.0
2017-Oct-27 20:58N 01°14' E 103°42'0 0.0
2017-Oct-27 20:28N 01°14' E 103°42'0 0.0
2017-Oct-27 19:55N 01°14' E 103°42'0 0.0
2017-Oct-27 19:25N 01°14' E 103°42'0 0.0
2017-Oct-27 18:58N 01°14' E 103°42'0 0.0
2017-Oct-27 18:25N 01°14' E 103°42'0 0.0
2017-Oct-27 17:58N 01°14' E 103°42'0 0.0
2017-Oct-27 17:26N 01°14' E 103°42'0 0.0
2017-Oct-27 17:00N 01°14' E 103°42'0 0.5
2017-Oct-27 16:30N 01°14' E 103°42'3 6.5
2017-Oct-27 16:01N 01°11' E 103°41'2 3.4
2017-Oct-27 15:27N 01°11' E 103°42'0 0.0
2017-Oct-27 14:57N 01°11' E 103°42'0 0.0
2017-Oct-27 14:27N 01°11' E 103°42'0 0.0
2017-Oct-27 13:57N 01°11' E 103°42'0 0.0
2017-Oct-27 13:30N 01°11' E 103°42'0 0.1
2017-Oct-27 12:57N 01°11' E 103°43'0 0.1
2017-Oct-27 12:27N 01°11' E 103°42'0 0.1
2017-Oct-27 11:48N 01°11' E 103°43'0 0.2
2017-Oct-27 11:30N 01°11' E 103°42'0 0.0
2017-Oct-27 10:57N 01°11' E 103°42'0 0.1
2017-Oct-27 10:30N 01°11' E 103°43'0 0.0
2017-Oct-27 09:57N 01°11' E 103°43'0 0.2
2017-Oct-27 09:30N 01°11' E 103°42'0 0.0
2017-Oct-27 08:57N 01°11' E 103°42'0 0.0
2017-Oct-27 08:27N 01°11' E 103°42'0 0.0
2017-Oct-27 07:57N 01°11' E 103°42'0 0.1
2017-Oct-27 07:24N 01°11' E 103°43'0 0.1
2017-Oct-27 06:57N 01°11' E 103°42'0 0.0
2017-Oct-27 06:30N 01°11' E 103°42'0 0.0
2017-Oct-27 05:54N 01°11' E 103°42'0 0.1
2017-Oct-27 05:30N 01°11' E 103°42'0 0.0
2017-Oct-27 04:57N 01°11' E 103°42'0 0.0
2017-Oct-27 04:27N 01°11' E 103°42'0 0.0
2017-Oct-27 03:54N 01°11' E 103°42'0 0.0
2017-Oct-27 03:30N 01°11' E 103°42'0 0.0
2017-Oct-27 02:51N 01°11' E 103°42'0 0.1
2017-Oct-27 02:30N 01°11' E 103°42'0 0.0
2017-Oct-27 01:45N 01°11' E 103°42'0 0.1
2017-Oct-27 01:30N 01°11' E 103°42'0 0.2
2017-Oct-27 00:54N 01°11' E 103°42'0 0.6
2017-Oct-27 00:30N 01°11' E 103°42'1 2.9
2017-Oct-27 00:00N 01°12' E 103°41'1 1.9
2017-Oct-26 23:30N 01°11' E 103°41'4 8.3
2017-Oct-26 22:59N 01°09' E 103°45'4 8.3
2017-Oct-26 22:30N 01°11' E 103°49'5 9.2
2017-Oct-26 22:00N 01°13' E 103°53'611.7
2017-Oct-26 21:30N 01°15' E 103°58'710.1
2017-Oct-26 20:50N 01°16' E 104°05'  
Track history (hours):
 
Tides and Currents Weather Stations Pressure Air Temp Water Temp Dewpoint Dewpoint Depression Visibility Wind Speed Wind Dir Waves Ship Positions

BBC Brazil

Last reported at 2017-Nov-03 00:49 UTC. Time now 2017-Nov-17 19:33 UTC.
Position N 01°17' E 103°23'.
Warning: this ship's position is 14 days out of date.

Length 228 m; draft 8.3 m.

Type: Ship. MMSI: 538005439.

Date/timePositionNaut miles runAvg speedWind from/ knotsBaromVisibWave heightAir tempDewpointWater temp
2017-Nov-03 00:49N 01°17' E 103°23'711.3
2017-Nov-03 00:13N 01°14' E 103°29'312.2
2017-Nov-02 23:59N 01°13' E 103°32'611.6
2017-Nov-02 23:30N 01°12' E 103°38'5 9.4
2017-Nov-02 22:59N 01°10' E 103°42'510.1
2017-Nov-02 22:31N 01°10' E 103°47'3 6.3
2017-Nov-02 22:00N 01°12' E 103°49'1 1.8
2017-Nov-02 21:29N 01°13' E 103°49'0 0.0
2017-Nov-02 20:59N 01°13' E 103°49'0 0.2
2017-Nov-02 20:29N 01°13' E 103°49'0 0.2
2017-Nov-02 19:59N 01°13' E 103°49'0 0.1
2017-Nov-02 19:29N 01°13' E 103°49'0 0.1
2017-Nov-02 18:59N 01°13' E 103°49'0 0.0
2017-Nov-02 18:29N 01°13' E 103°49'0 0.0
2017-Nov-02 17:59N 01°13' E 103°49'0 0.1
2017-Nov-02 17:29N 01°13' E 103°49'0 0.0
2017-Nov-02 16:59N 01°13' E 103°49'0 0.1
2017-Nov-02 16:29N 01°13' E 103°49'0 0.0
2017-Nov-02 15:59N 01°13' E 103°49'0 0.1
2017-Nov-02 15:29N 01°13' E 103°49'0 0.2
2017-Nov-02 14:59N 01°13' E 103°49'0 0.0
2017-Nov-02 14:29N 01°13' E 103°49'0 0.0
2017-Nov-02 13:59N 01°13' E 103°49'0 0.0
2017-Nov-02 13:29N 01°13' E 103°49'0 0.4
2017-Nov-02 12:59N 01°13' E 103°49'0 0.0
2017-Nov-02 12:29N 01°13' E 103°49'0 0.1
2017-Nov-02 11:50N 01°13' E 103°49'0 0.1
2017-Nov-02 11:26N 01°13' E 103°49'0 0.0
2017-Nov-02 10:59N 01°13' E 103°49'0 0.0
2017-Nov-02 10:29N 01°13' E 103°49'0 0.0
2017-Nov-02 09:47N 01°13' E 103°49'0 0.2
2017-Nov-02 09:29N 01°13' E 103°49'0 0.1
2017-Nov-02 08:59N 01°13' E 103°49'0 0.2
2017-Nov-02 08:29N 01°13' E 103°49'0 0.0
2017-Nov-02 07:59N 01°13' E 103°49'0 0.0
2017-Nov-02 07:26N 01°13' E 103°49'0 0.0
2017-Nov-02 06:59N 01°13' E 103°49'0 0.1
2017-Nov-02 06:29N 01°13' E 103°49'0 0.1
2017-Nov-02 05:53N 01°13' E 103°49'0 0.2
2017-Nov-02 05:29N 01°13' E 103°49'0 0.0
2017-Nov-02 04:59N 01°13' E 103°49'0 0.0
2017-Nov-02 04:29N 01°13' E 103°49'0 0.1
2017-Nov-02 03:59N 01°13' E 103°49'0 0.0
2017-Nov-02 03:26N 01°13' E 103°49'0 0.0
2017-Nov-02 02:59N 01°13' E 103°49'0 0.0
2017-Nov-02 02:23N 01°13' E 103°49'0 0.0
2017-Nov-02 01:59N 01°13' E 103°49'0 0.1
2017-Nov-02 01:26N 01°13' E 103°49'0 0.2
2017-Nov-02 00:56N 01°13' E 103°49'0 0.0
2017-Nov-02 00:29N 01°13' E 103°49'0 0.0
2017-Nov-01 23:53N 01°13' E 103°49'0 0.1
2017-Nov-01 23:29N 01°13' E 103°49'0 0.1
2017-Nov-01 22:59N 01°13' E 103°49'0 0.0
2017-Nov-01 22:29N 01°13' E 103°49'0 0.1
2017-Nov-01 21:59N 01°13' E 103°49'0 0.1
2017-Nov-01 21:29N 01°13' E 103°49'0 0.2
2017-Nov-01 20:59N 01°13' E 103°49'0 0.3
2017-Nov-01 20:29N 01°13' E 103°49'0 0.1
2017-Nov-01 19:59N 01°13' E 103°49'0 0.1
2017-Nov-01 19:30N 01°13' E 103°49'2 3.8
2017-Nov-01 19:01N 01°14' E 103°47'5 9.5
2017-Nov-01 18:31N 01°14' E 103°42'4 0.2
2017-Nov-01 01:58N 01°18' E 103°41'0 0.0
2017-Nov-01 01:25N 01°18' E 103°41'0 0.0
2017-Nov-01 00:58N 01°18' E 103°41'0 0.0
2017-Nov-01 00:28N 01°18' E 103°41'0 0.0
2017-Oct-31 23:58N 01°18' E 103°41'0 0.3
2017-Oct-31 23:30N 01°18' E 103°41'2 3.4
2017-Oct-31 23:00N 01°17' E 103°40'3 5.4
2017-Oct-31 22:30N 01°14' E 103°39'2 4.6
2017-Oct-31 22:00N 01°12' E 103°40'0 0.1
2017-Oct-31 21:30N 01°12' E 103°40'0 0.0
2017-Oct-31 20:57N 01°12' E 103°40'0 0.1
2017-Oct-31 20:30N 01°12' E 103°41'0 0.3
2017-Oct-31 19:57N 01°12' E 103°41'0 0.0
2017-Oct-31 19:30N 01°12' E 103°41'0 0.0
2017-Oct-31 18:57N 01°12' E 103°41'0 0.0
2017-Oct-31 18:24N 01°12' E 103°41'0 0.3
2017-Oct-31 18:00N 01°12' E 103°41'0 0.0
2017-Oct-31 17:30N 01°12' E 103°41'0 0.0
2017-Oct-31 16:57N 01°12' E 103°41'0 0.0
2017-Oct-31 16:30N 01°12' E 103°41'0 0.0
2017-Oct-31 15:57N 01°12' E 103°41'0 0.0
2017-Oct-31 15:27N 01°12' E 103°41'0 0.0
2017-Oct-31 14:54N 01°12' E 103°41'0 0.0
2017-Oct-31 14:30N 01°12' E 103°41'0 0.1
2017-Oct-31 13:57N 01°12' E 103°41'0 0.3
2017-Oct-31 13:30N 01°12' E 103°40'0 0.0
2017-Oct-31 13:00N 01°12' E 103°40'0 0.1
2017-Oct-31 12:30N 01°12' E 103°40'0 0.0
2017-Oct-31 11:54N 01°12' E 103°40'0 0.0
2017-Oct-31 11:30N 01°12' E 103°40'0 0.0
2017-Oct-31 10:57N 01°12' E 103°40'0 0.0
2017-Oct-31 10:30N 01°12' E 103°40'0 0.0
2017-Oct-31 09:54N 01°12' E 103°40'0 0.0
2017-Oct-31 09:24N 01°12' E 103°40'0 0.0
2017-Oct-31 08:57N 01°12' E 103°40'0 0.0
2017-Oct-31 08:30N 01°12' E 103°40'0 0.0
2017-Oct-31 07:57N 01°12' E 103°40'0 0.0
2017-Oct-31 07:30N 01°12' E 103°40'0 0.0
2017-Oct-31 06:57N 01°12' E 103°40'0 0.1
2017-Oct-31 06:21N 01°12' E 103°40'0 0.0
2017-Oct-31 06:00N 01°12' E 103°40'0 0.1
2017-Oct-31 05:30N 01°12' E 103°40'0 0.1
2017-Oct-31 04:57N 01°12' E 103°40'0 0.0
2017-Oct-31 04:30N 01°12' E 103°40'0 0.0
2017-Oct-31 03:57N 01°12' E 103°40'0 0.1
2017-Oct-31 03:30N 01°12' E 103°41'0 0.0
2017-Oct-31 02:57N 01°12' E 103°41'0 0.1
2017-Oct-31 02:30N 01°12' E 103°40'0 0.1
2017-Oct-31 01:57N 01°12' E 103°40'0 0.0
2017-Oct-31 01:30N 01°12' E 103°40'0 0.1
2017-Oct-31 00:57N 01°12' E 103°41'0 0.0
2017-Oct-31 00:30N 01°12' E 103°41'0 0.0
2017-Oct-31 00:00N 01°12' E 103°41'0 0.1
2017-Oct-30 23:30N 01°12' E 103°40'0 0.6
2017-Oct-30 23:00N 01°12' E 103°41'3 6.6
2017-Oct-30 22:30N 01°15' E 103°41'1 0.9
2017-Oct-30 21:53N 01°16' E 103°41'0 0.0
2017-Oct-30 21:29N 01°16' E 103°41'0 0.0
2017-Oct-30 20:53N 01°16' E 103°41'0 0.0
2017-Oct-30 20:29N 01°16' E 103°41'0 0.0
2017-Oct-30 19:56N 01°16' E 103°41'0 0.0
2017-Oct-30 19:29N 01°16' E 103°41'0 0.0
2017-Oct-30 18:56N 01°16' E 103°41'0 0.0
2017-Oct-30 18:26N 01°16' E 103°41'0 0.0
2017-Oct-30 17:50N 01°16' E 103°41'0 0.0
2017-Oct-30 17:26N 01°16' E 103°41'0 0.0
2017-Oct-30 16:56N 01°16' E 103°41'0 0.0
2017-Oct-30 16:29N 01°16' E 103°41'0 0.0
2017-Oct-30 15:53N 01°16' E 103°41'0 0.0
2017-Oct-30 15:29N 01°16' E 103°41'0 0.0
2017-Oct-30 14:56N 01°16' E 103°41'0 0.0
2017-Oct-30 13:47N 01°16' E 103°41'0 0.0
2017-Oct-30 13:29N 01°16' E 103°41'0 0.0
2017-Oct-30 12:23N 01°16' E 103°41'0 0.0
2017-Oct-30 11:56N 01°16' E 103°41'0 0.0
2017-Oct-30 11:29N 01°16' E 103°41'0 0.0
2017-Oct-30 10:56N 01°16' E 103°41'0 0.0
2017-Oct-30 10:29N 01°16' E 103°41'0 0.0
2017-Oct-30 09:56N 01°16' E 103°41'0 0.0
2017-Oct-30 09:29N 01°16' E 103°41'0 0.0
2017-Oct-30 08:53N 01°16' E 103°41'0 0.0
2017-Oct-30 08:30N 01°16' E 103°41'1 2.6
2017-Oct-30 08:00N 01°15' E 103°42'2 3.8
2017-Oct-30 07:30N 01°13' E 103°40'3 5.2
2017-Oct-30 07:01N 01°11' E 103°41'2 3.5
2017-Oct-30 06:29N 01°10' E 103°43'0 0.1
2017-Oct-30 05:59N 01°10' E 103°43'0 0.0
2017-Oct-30 05:26N 01°10' E 103°43'0 0.2
2017-Oct-30 04:59N 01°10' E 103°43'0 0.1
2017-Oct-30 04:20N 01°10' E 103°43'0 0.0
2017-Oct-30 03:59N 01°10' E 103°43'0 0.0
2017-Oct-30 03:23N 01°10' E 103°43'0 0.2
2017-Oct-30 02:59N 01°10' E 103°43'0 0.1
2017-Oct-30 02:26N 01°10' E 103°43'0 0.1
2017-Oct-30 01:59N 01°10' E 103°43'0 0.0
2017-Oct-30 01:29N 01°10' E 103°43'0 0.3
2017-Oct-30 00:59N 01°10' E 103°43'0 0.0
2017-Oct-30 00:17N 01°10' E 103°43'0 0.1
2017-Oct-29 23:59N 01°10' E 103°43'0 0.0
2017-Oct-29 23:26N 01°10' E 103°43'0 0.1
2017-Oct-29 22:59N 01°10' E 103°43'0 0.2
2017-Oct-29 22:29N 01°10' E 103°43'0 0.0
2017-Oct-29 21:59N 01°10' E 103°43'0 0.1
2017-Oct-29 21:29N 01°10' E 103°43'0 0.0
2017-Oct-29 20:59N 01°10' E 103°43'0 0.0
2017-Oct-29 20:29N 01°10' E 103°43'0 0.0
2017-Oct-29 19:56N 01°10' E 103°43'0 0.3
2017-Oct-29 19:29N 01°10' E 103°43'0 0.2
2017-Oct-29 18:59N 01°10' E 103°43'0 0.1
2017-Oct-29 18:26N 01°10' E 103°43'0 0.0
2017-Oct-29 17:59N 01°10' E 103°43'0 0.0
2017-Oct-29 17:29N 01°10' E 103°43'0 0.0
2017-Oct-29 16:59N 01°10' E 103°43'0 0.0
2017-Oct-29 16:26N 01°10' E 103°43'0 0.0
2017-Oct-29 15:59N 01°10' E 103°43'0 0.0
2017-Oct-29 15:29N 01°10' E 103°43'0 0.0
2017-Oct-29 14:59N 01°10' E 103°43'0 0.3
2017-Oct-29 14:26N 01°10' E 103°43'0 0.0
2017-Oct-29 13:59N 01°10' E 103°43'0 0.0
2017-Oct-29 13:26N 01°10' E 103°43'0 0.0
2017-Oct-29 12:59N 01°10' E 103°43'0 0.0
2017-Oct-29 12:29N 01°10' E 103°43'0 0.0
2017-Oct-29 11:53N 01°10' E 103°43'0 0.0
2017-Oct-29 11:23N 01°10' E 103°43'0 0.0
2017-Oct-29 10:50N 01°10' E 103°43'0 0.0
2017-Oct-29 10:29N 01°10' E 103°43'0 0.0
2017-Oct-29 09:56N 01°10' E 103°43'0 0.1
2017-Oct-29 09:11N 01°10' E 103°43'0 0.0
2017-Oct-29 08:56N 01°10' E 103°43'0 0.0
2017-Oct-29 08:26N 01°10' E 103°43'0 0.1
2017-Oct-29 07:59N 01°10' E 103°43'0 0.1
2017-Oct-29 07:20N 01°10' E 103°43'0 0.1
2017-Oct-29 06:59N 01°10' E 103°43'0 0.0
2017-Oct-29 06:23N 01°10' E 103°43'0 0.0
2017-Oct-29 05:50N 01°10' E 103°43'0 0.0
2017-Oct-29 05:29N 01°10' E 103°43'0 0.0
2017-Oct-29 04:56N 01°10' E 103°43'0 0.1
2017-Oct-29 04:26N 01°10' E 103°43'0 0.0
2017-Oct-29 03:44N 01°10' E 103°43'0 0.0
2017-Oct-28 18:59N 01°10' E 103°43'0 0.0
2017-Oct-28 18:29N 01°10' E 103°43'0 0.0
2017-Oct-28 17:56N 01°10' E 103°43'0 0.3
2017-Oct-28 17:29N 01°10' E 103°43'1 1.3
2017-Oct-28 17:00N 01°10' E 103°42'4 7.2
2017-Oct-28 16:30N 01°13' E 103°41'1 2.6
2017-Oct-28 16:00N 01°14' E 103°42'0 0.0
2017-Oct-28 15:28N 01°14' E 103°42'0 0.0
2017-Oct-28 14:49N 01°14' E 103°42'0 0.0
2017-Oct-28 14:28N 01°14' E 103°42'0 0.0
2017-Oct-28 13:55N 01°14' E 103°42'0 0.0
2017-Oct-28 13:22N 01°14' E 103°42'0 0.0
2017-Oct-28 12:58N 01°14' E 103°42'0 0.0
2017-Oct-28 12:28N 01°14' E 103°42'0 0.0
2017-Oct-28 11:55N 01°14' E 103°42'0 0.0
2017-Oct-28 11:28N 01°14' E 103°42'0 0.0
2017-Oct-28 10:55N 01°14' E 103°42'0 0.0
2017-Oct-28 10:28N 01°14' E 103°42'0 0.0
2017-Oct-28 09:58N 01°14' E 103°42'0 0.0
2017-Oct-28 09:22N 01°14' E 103°42'0 0.0
2017-Oct-28 08:58N 01°14' E 103°42'0 0.0
2017-Oct-28 08:25N 01°14' E 103°42'0 0.0
2017-Oct-28 07:58N 01°14' E 103°42'0 0.0
2017-Oct-28 07:28N 01°14' E 103°42'0 0.0
2017-Oct-28 06:58N 01°14' E 103°42'0 0.0
2017-Oct-28 06:28N 01°14' E 103°42'0 0.0
2017-Oct-28 05:58N 01°14' E 103°42'0 0.0
2017-Oct-28 05:28N 01°14' E 103°42'0 0.0
2017-Oct-28 04:58N 01°14' E 103°42'0 0.0
2017-Oct-28 04:28N 01°14' E 103°42'0 0.0
2017-Oct-28 03:58N 01°14' E 103°42'0 0.0
2017-Oct-28 03:28N 01°14' E 103°42'0 0.0
2017-Oct-28 02:55N 01°14' E 103°42'0 0.0
2017-Oct-28 02:28N 01°14' E 103°42'0 0.0
2017-Oct-28 01:58N 01°14' E 103°42'0 0.0
2017-Oct-28 01:28N 01°14' E 103°42'0 0.0
2017-Oct-28 00:49N 01°14' E 103°42'0 0.0
2017-Oct-28 00:25N 01°14' E 103°42'0 0.0
2017-Oct-27 23:58N 01°14' E 103°42'0 0.0
2017-Oct-27 23:28N 01°14' E 103°42'0 0.0
2017-Oct-27 22:58N 01°14' E 103°42'0 0.0
2017-Oct-27 22:28N 01°14' E 103°42'0 0.0
2017-Oct-27 21:55N 01°14' E 103°42'0 0.0
2017-Oct-27 21:28N 01°14' E 103°42'0 0.0
2017-Oct-27 20:58N 01°14' E 103°42'0 0.0
2017-Oct-27 20:28N 01°14' E 103°42'0 0.0
2017-Oct-27 19:55N 01°14' E 103°42'0 0.0
2017-Oct-27 19:25N 01°14' E 103°42'0 0.0
2017-Oct-27 18:58N 01°14' E 103°42'0 0.0
2017-Oct-27 18:25N 01°14' E 103°42'0 0.0
2017-Oct-27 17:58N 01°14' E 103°42'0 0.0
2017-Oct-27 17:26N 01°14' E 103°42'0 0.0
2017-Oct-27 17:00N 01°14' E 103°42'0 0.5
2017-Oct-27 16:30N 01°14' E 103°42'3 6.5
2017-Oct-27 16:01N 01°11' E 103°41'2 3.4
2017-Oct-27 15:27N 01°11' E 103°42'0 0.0
2017-Oct-27 14:57N 01°11' E 103°42'0 0.0
2017-Oct-27 14:27N 01°11' E 103°42'0 0.0
2017-Oct-27 13:57N 01°11' E 103°42'0 0.0
2017-Oct-27 13:30N 01°11' E 103°42'0 0.1
2017-Oct-27 12:57N 01°11' E 103°43'0 0.1
2017-Oct-27 12:27N 01°11' E 103°42'0 0.1
2017-Oct-27 11:48N 01°11' E 103°43'0 0.2
2017-Oct-27 11:30N 01°11' E 103°42'0 0.0
2017-Oct-27 10:57N 01°11' E 103°42'0 0.1
2017-Oct-27 10:30N 01°11' E 103°43'0 0.0
2017-Oct-27 09:57N 01°11' E 103°43'0 0.2
2017-Oct-27 09:30N 01°11' E 103°42'0 0.0
2017-Oct-27 08:57N 01°11' E 103°42'0 0.0
2017-Oct-27 08:27N 01°11' E 103°42'0 0.0
2017-Oct-27 07:57N 01°11' E 103°42'0 0.1
2017-Oct-27 07:24N 01°11' E 103°43'0 0.1
2017-Oct-27 06:57N 01°11' E 103°42'0 0.0
2017-Oct-27 06:30N 01°11' E 103°42'0 0.0
2017-Oct-27 05:54N 01°11' E 103°42'0 0.1
2017-Oct-27 05:30N 01°11' E 103°42'0 0.0
2017-Oct-27 04:57N 01°11' E 103°42'0 0.0
2017-Oct-27 04:27N 01°11' E 103°42'0 0.0
2017-Oct-27 03:54N 01°11' E 103°42'0 0.0
2017-Oct-27 03:30N 01°11' E 103°42'0 0.0
2017-Oct-27 02:51N 01°11' E 103°42'0 0.1
2017-Oct-27 02:30N 01°11' E 103°42'0 0.0
2017-Oct-27 01:45N 01°11' E 103°42'0 0.1
2017-Oct-27 01:30N 01°11' E 103°42'0 0.2
2017-Oct-27 00:54N 01°11' E 103°42'0 0.6
2017-Oct-27 00:30N 01°11' E 103°42'1 2.9
2017-Oct-27 00:00N 01°12' E 103°41'1 1.9
2017-Oct-26 23:30N 01°11' E 103°41'4 8.3
2017-Oct-26 22:59N 01°09' E 103°45'4 8.3
2017-Oct-26 22:30N 01°11' E 103°49'5 9.2
2017-Oct-26 22:00N 01°13' E 103°53'611.7
2017-Oct-26 21:30N 01°15' E 103°58'710.1
2017-Oct-26 20:50N 01°16' E 104°05'  

Dump ship's entire track history